Time;durP1;ratioP1;P1;durP2;ratioP2;P2;SDS_P1;SDS_P2;PMS_P1;PMS_P2;Temp;Humidity;BMP_temperature;BMP_pressure;BME280_temperature;BME280_humidity;BME280_pressure;Samples;Min_cycle;Max_cycle;Signal;HPM_P1;HPM_P2
2021/06/07 00:01:48;;;;;;;22.20;10.95;;;18.20;86.40;;;;;;5037636;28;20070;-83
2021/06/07 00:04:14;;;;;;;23.95;11.00;;;18.20;86.40;;;;;;5037157;28;20029;-84
2021/06/07 00:06:40;;;;;;;25.80;11.80;;;18.30;86.50;;;;;;5037497;28;20035;-84
2021/06/07 00:09:11;;;;;;;24.17;11.20;;;18.20;86.40;;;;;;5054627;28;20025;-84
2021/06/07 00:11:45;;;;;;;25.95;11.15;;;18.20;86.30;;;;;;5055092;28;20028;-84
2021/06/07 00:14:12;;;;;;;25.63;11.05;;;18.20;86.30;;;;;;5036467;28;20056;-85
2021/06/07 00:16:38;;;;;;;25.63;11.20;;;18.20;86.20;;;;;;5054909;28;20029;-84
2021/06/07 00:19:09;;;;;;;22.05;10.38;;;18.20;86.40;;;;;;5054388;28;20040;-84
2021/06/07 00:21:36;;;;;;;21.00;10.75;;;18.20;86.30;;;;;;5055251;28;20025;-84
2021/06/07 00:24:03;;;;;;;24.45;10.95;;;18.20;86.50;;;;;;5028864;28;20029;-84
2021/06/07 00:26:29;;;;;;;22.08;10.73;;;18.20;86.50;;;;;;5037372;28;20117;-84
2021/06/07 00:28:55;;;;;;;25.30;11.73;;;18.10;86.60;;;;;;5037167;28;20056;-84
2021/06/07 00:31:21;;;;;;;24.58;11.20;;;18.10;86.50;;;;;;5054171;28;20065;-84
2021/06/07 00:33:47;;;;;;;22.73;10.98;;;18.10;86.70;;;;;;5036745;28;20532;-83
2021/06/07 00:36:19;;;;;;;24.05;10.85;;;18.10;86.80;;;;;;5036336;28;20116;-83
2021/06/07 00:38:44;;;;;;;25.70;11.18;;;18.10;86.70;;;;;;5054832;28;20112;-84
2021/06/07 00:41:10;;;;;;;22.85;10.20;;;18.10;86.70;;;;;;5036640;28;20542;-85
2021/06/07 00:43:36;;;;;;;22.65;10.82;;;18.10;86.70;;;;;;5054038;28;20482;-84
2021/06/07 00:46:03;;;;;;;25.90;11.50;;;18.10;86.70;;;;;;5054548;28;20454;-85
2021/06/07 00:48:29;;;;;;;22.00;10.80;;;18.10;86.60;;;;;;5036719;28;20074;-85
2021/06/07 00:51:01;;;;;;;23.25;10.63;;;18.20;86.60;;;;;;5036741;28;20029;-85
2021/06/07 00:53:27;;;;;;;25.23;11.32;;;18.10;86.20;;;;;;5053977;28;20025;-85
2021/06/07 00:55:56;;;;;;;26.65;10.82;;;18.10;86.20;;;;;;5036581;28;20082;-85
2021/06/07 00:58:34;;;;;;;23.27;10.38;;;18.10;86.50;;;;;;5054124;28;20052;-85
2021/06/07 01:01:01;;;;;;;23.85;10.60;;;18.10;86.40;;;;;;5037016;28;20044;-85
2021/06/07 01:03:28;;;;;;;21.52;11.07;;;18.10;86.40;;;;;;5053463;28;20071;-85
2021/06/07 01:05:54;;;;;;;20.15;10.15;;;18.10;86.60;;;;;;5036696;28;20036;-85
2021/06/07 01:08:21;;;;;;;23.25;10.60;;;18.00;86.70;;;;;;5035912;28;20488;-85
2021/06/07 01:10:47;;;;;;;22.73;10.23;;;18.10;86.90;;;;;;5036362;28;20079;-85
2021/06/07 01:13:14;;;;;;;24.88;10.52;;;18.00;86.70;;;;;;5035948;28;20072;-84
2021/06/07 01:15:41;;;;;;;23.02;10.52;;;18.00;86.70;;;;;;5036409;28;20120;-84
2021/06/07 01:18:06;;;;;;;23.15;10.55;;;18.00;86.80;;;;;;5035631;28;20024;-83
2021/06/07 01:20:32;;;;;;;25.88;11.07;;;18.00;86.70;;;;;;5054047;28;20037;-83
2021/06/07 01:22:58;;;;;;;22.48;11.15;;;18.00;87.00;;;;;;5053832;28;20101;-84
2021/06/07 01:25:30;;;;;;;22.10;11.10;;;18.00;86.90;;;;;;5035611;28;20025;-83
2021/06/07 01:27:57;;;;;;;20.63;10.00;;;18.00;86.90;;;;;;5036263;28;20078;-83
2021/06/07 01:30:27;;;;;;;24.33;10.32;;;18.00;86.90;;;;;;5035663;28;20029;-83
2021/06/07 01:32:53;;;;;;;21.70;10.32;;;18.00;87.70;;;;;;5035939;28;20094;-83
2021/06/07 01:35:19;;;;;;;21.00;9.95;;;18.00;86.90;;;;;;5035582;28;20025;-83
2021/06/07 01:37:46;;;;;;;21.90;11.07;;;18.00;86.80;;;;;;5036224;28;20385;-83
2021/06/07 01:40:18;;;;;;;22.48;10.35;;;18.00;86.90;;;;;;5035554;28;20037;-83
2021/06/07 01:42:44;;;;;;;23.08;10.50;;;18.00;86.60;;;;;;5053508;28;20170;-84
2021/06/07 01:45:11;;;;;;;22.00;10.82;;;18.00;86.70;;;;;;5035580;28;20469;-83
2021/06/07 01:47:37;;;;;;;21.63;10.88;;;18.00;86.60;;;;;;5035881;28;20021;-83
2021/06/07 01:50:05;;;;;;;24.90;11.80;;;18.00;86.60;;;;;;5053284;28;20184;-83
2021/06/07 01:52:31;;;;;;;25.30;10.93;;;18.00;86.60;;;;;;5035442;28;20123;-84
2021/06/07 01:54:57;;;;;;;19.27;10.02;;;18.00;86.60;;;;;;5053731;28;20485;-85
2021/06/07 01:57:23;;;;;;;23.77;10.65;;;18.00;86.70;;;;;;5053199;28;20060;-84
2021/06/07 01:59:49;;;;;;;24.50;10.80;;;18.00;86.60;;;;;;5053647;28;20061;-84
2021/06/07 02:02:15;;;;;;;20.88;10.88;;;18.10;86.50;;;;;;5035204;28;20029;-83
2021/06/07 02:04:40;;;;;;;20.15;10.13;;;18.00;86.40;;;;;;5035501;28;20029;-84
2021/06/07 02:07:06;;;;;;;20.02;10.60;;;18.00;86.60;;;;;;5035520;28;20025;-84
2021/06/07 02:09:37;;;;;;;22.27;11.40;;;18.00;86.60;;;;;;5035325;28;20082;-83
2021/06/07 02:12:03;;;;;;;20.08;9.95;;;18.00;86.50;;;;;;5053454;28;20037;-84
2021/06/07 02:14:29;;;;;;;23.15;11.07;;;18.00;86.60;;;;;;5054442;28;20293;-83
2021/06/07 02:16:54;;;;;;;25.08;10.70;;;18.00;86.60;;;;;;5039719;28;20051;-84
2021/06/07 02:19:20;;;;;;;23.15;10.00;;;18.00;86.70;;;;;;5039038;28;20022;-83
2021/06/07 02:21:46;;;;;;;19.85;9.65;;;18.00;86.60;;;;;;5039686;28;20025;-83
2021/06/07 02:24:11;;;;;;;20.85;10.20;;;18.00;86.70;;;;;;5039088;28;20021;-83
2021/06/07 02:26:38;;;;;;;20.10;10.60;;;18.00;86.80;;;;;;5039404;28;20028;-83
2021/06/07 02:29:13;;;;;;;22.77;10.52;;;18.00;86.70;;;;;;5057159;28;20033;-84
2021/06/07 02:31:40;;;;;;;24.63;10.85;;;18.00;86.60;;;;;;5039469;28;20128;-84
2021/06/07 02:34:11;;;;;;;22.80;10.48;;;18.00;86.60;;;;;;5038828;28;20049;-84
2021/06/07 02:36:38;;;;;;;19.58;10.43;;;18.00;86.60;;;;;;5057017;28;20021;-84
2021/06/07 02:39:07;;;;;;;20.23;10.85;;;18.00;86.90;;;;;;5056753;28;20029;-83
2021/06/07 02:41:33;;;;;;;23.80;10.88;;;18.00;86.80;;;;;;5038426;28;20101;-84
2021/06/07 02:43:59;;;;;;;23.73;11.02;;;18.00;86.80;;;;;;5039256;28;20056;-83
2021/06/07 02:46:25;;;;;;;20.85;10.48;;;18.00;86.90;;;;;;5038422;28;20354;-83
2021/06/07 02:48:50;;;;;;;22.95;11.13;;;18.00;87.40;;;;;;5057284;28;20453;-83
2021/06/07 02:51:17;;;;;;;22.52;10.55;;;18.00;86.90;;;;;;5056056;28;20029;-84
2021/06/07 02:53:43;;;;;;;20.85;10.85;;;18.00;86.80;;;;;;5038862;28;20059;-84
2021/06/07 02:56:10;;;;;;;22.33;10.93;;;18.00;86.80;;;;;;5038953;28;20021;-82
2021/06/07 02:58:35;;;;;;;22.38;11.05;;;18.00;86.70;;;;;;5056042;28;20045;-82
2021/06/07 03:01:06;;;;;;;22.40;10.43;;;18.00;86.70;;;;;;5063867;28;20098;-82
2021/06/07 03:03:33;;;;;;;23.48;11.32;;;18.00;86.80;;;;;;5058308;28;20472;-82
2021/06/07 03:05:59;;;;;;;20.92;10.90;;;18.00;87.10;;;;;;5076609;28;20028;-82
2021/06/07 03:08:27;;;;;;;22.90;11.52;;;18.00;87.20;;;;;;5058011;28;20078;-82
2021/06/07 03:10:56;;;;;;;21.02;10.30;;;18.00;87.20;;;;;;5051158;28;20120;-84
2021/06/07 03:13:23;;;;;;;24.50;11.77;;;18.00;87.30;;;;;;5037664;28;20032;-84
2021/06/07 03:15:51;;;;;;;21.73;11.25;;;18.00;87.30;;;;;;5044466;28;20021;-81
2021/06/07 03:18:17;;;;;;;20.85;11.43;;;18.00;87.50;;;;;;5075004;28;20028;-84
2021/06/07 03:20:43;;;;;;;25.85;10.80;;;17.90;87.20;;;;;;5052585;28;20126;-83
2021/06/07 03:23:12;;;;;;;21.80;11.32;;;18.00;87.40;;;;;;5038531;28;20025;-83
2021/06/07 03:25:39;;;;;;;23.20;11.55;;;18.00;87.40;;;;;;5050295;28;20030;-82
2021/06/07 03:28:05;;;;;;;21.55;11.07;;;18.00;87.40;;;;;;5018300;28;20478;-82
2021/06/07 03:30:31;;;;;;;21.40;11.25;;;18.00;87.40;;;;;;5025392;28;20024;-82
2021/06/07 03:32:57;;;;;;;20.80;10.93;;;18.00;87.40;;;;;;5057831;28;20059;-84
2021/06/07 03:35:23;;;;;;;19.63;11.38;;;18.00;87.40;;;;;;5069017;28;20481;-82
2021/06/07 03:37:50;;;;;;;21.13;11.35;;;18.00;87.40;;;;;;5065365;28;20464;-85
2021/06/07 03:40:22;;;;;;;20.45;11.07;;;17.90;87.50;;;;;;5043114;28;20533;-84
2021/06/07 03:42:48;;;;;;;21.95;10.63;;;17.90;87.70;;;;;;5045974;28;20033;-83
2021/06/07 03:45:16;;;;;;;24.27;11.73;;;18.00;87.70;;;;;;5037052;28;20534;-83
2021/06/07 03:47:43;;;;;;;22.63;10.80;;;18.00;87.70;;;;;;5018030;28;20033;-83
2021/06/07 03:50:11;;;;;;;23.23;12.35;;;17.90;87.70;;;;;;5035783;28;20370;-82
2021/06/07 03:52:37;;;;;;;24.23;10.93;;;17.90;87.80;;;;;;5037363;28;20025;-83
2021/06/07 03:55:06;;;;;;;20.98;10.52;;;17.90;87.90;;;;;;5037901;28;20071;-84
2021/06/07 03:57:32;;;;;;;29.98;12.55;;;17.90;87.90;;;;;;5017417;28;20037;-84
2021/06/07 03:59:58;;;;;;;22.92;12.27;;;17.90;88.00;;;;;;5018173;28;20425;-82
2021/06/07 04:02:23;;;;;;;25.67;12.75;;;18.00;88.30;;;;;;5055249;28;20388;-83
2021/06/07 04:04:49;;;;;;;26.80;12.68;;;18.00;88.30;;;;;;5057926;28;20456;-83
2021/06/07 04:07:15;;;;;;;25.58;12.32;;;18.00;88.50;;;;;;5039145;28;20071;-83
2021/06/07 04:09:42;;;;;;;24.23;12.07;;;17.90;88.70;;;;;;5051887;28;20078;-83
2021/06/07 04:12:09;;;;;;;26.35;12.13;;;17.90;89.10;;;;;;5024628;28;20120;-82
2021/06/07 04:14:36;;;;;;;25.02;12.07;;;17.80;89.50;;;;;;5035790;28;20123;-80
2021/06/07 04:17:02;;;;;;;27.45;13.00;;;17.80;89.80;;;;;;5030047;28;20121;-79
2021/06/07 04:19:27;;;;;;;30.50;14.40;;;17.80;90.00;;;;;;5038681;28;20039;-84
2021/06/07 04:21:53;;;;;;;27.52;13.02;;;17.80;90.40;;;;;;5054112;28;20037;-84
2021/06/07 04:24:19;;;;;;;27.20;13.10;;;17.80;90.50;;;;;;5034962;28;20029;-82
2021/06/07 04:26:45;;;;;;;27.23;13.35;;;17.80;90.70;;;;;;5036171;28;20462;-81
2021/06/07 04:29:10;;;;;;;27.30;14.05;;;17.70;90.90;;;;;;5027429;28;20029;-80
2021/06/07 04:31:36;;;;;;;27.15;13.35;;;17.70;91.00;;;;;;5035245;28;20236;-80
2021/06/07 04:34:02;;;;;;;28.63;13.75;;;17.70;91.20;;;;;;5034257;28;20063;-82
2021/06/07 04:36:27;;;;;;;26.15;13.45;;;17.70;91.30;;;;;;5034591;28;20059;-80
2021/06/07 04:38:53;;;;;;;28.55;13.73;;;17.70;91.40;;;;;;5034594;28;20029;-81
2021/06/07 04:41:19;;;;;;;26.80;13.20;;;17.70;91.40;;;;;;5051177;28;20373;-77
2021/06/07 04:43:45;;;;;;;26.65;13.25;;;17.60;91.50;;;;;;5039988;28;20388;-77
2021/06/07 04:46:10;;;;;;;27.60;14.48;;;17.60;91.60;;;;;;5046501;28;20628;-76
2021/06/07 04:48:36;;;;;;;25.02;13.23;;;17.60;92.00;;;;;;5039526;28;20025;-78
2021/06/07 04:51:02;;;;;;;31.52;14.80;;;17.60;91.60;;;;;;5042567;28;20037;-82
2021/06/07 04:53:28;;;;;;;34.03;14.15;;;17.70;91.60;;;;;;5035313;28;20035;-85
2021/06/07 04:55:54;;;;;;;28.08;14.07;;;17.60;91.70;;;;;;5043562;28;20025;-81
2021/06/07 04:58:25;;;;;;;29.73;14.85;;;17.60;91.70;;;;;;5041303;28;20051;-84
2021/06/07 05:00:53;;;;;;;30.15;14.63;;;17.60;91.60;;;;;;5033928;28;20062;-83
2021/06/07 05:03:19;;;;;;;29.13;14.13;;;17.60;91.70;;;;;;5037975;28;20093;-83
2021/06/07 05:05:45;;;;;;;31.77;14.48;;;17.60;91.80;;;;;;5064112;28;20025;-82
2021/06/07 05:08:11;;;;;;;32.47;14.93;;;17.60;91.90;;;;;;5053560;28;20480;-82
2021/06/07 05:10:38;;;;;;;29.58;14.43;;;17.60;91.80;;;;;;5034967;28;20067;-81
2021/06/07 05:13:04;;;;;;;28.77;15.00;;;17.70;91.80;;;;;;5032358;28;20031;-78
2021/06/07 05:15:30;;;;;;;27.25;13.95;;;17.70;91.90;;;;;;5051770;28;20033;-80
2021/06/07 05:17:56;;;;;;;32.40;15.13;;;17.70;91.80;;;;;;5035140;28;20029;-81
2021/06/07 05:20:27;;;;;;;30.30;14.80;;;17.70;91.80;;;;;;5052038;28;20067;-81
2021/06/07 05:22:54;;;;;;;28.70;14.27;;;17.70;91.80;;;;;;5053145;28;20063;-81
2021/06/07 05:25:21;;;;;;;26.25;13.13;;;17.70;91.90;;;;;;5034933;28;20035;-83
2021/06/07 05:27:47;;;;;;;28.80;14.18;;;17.70;91.80;;;;;;5035995;28;20024;-81
2021/06/07 05:30:14;;;;;;;27.88;14.00;;;17.70;91.90;;;;;;5031672;28;20037;-81
2021/06/07 05:32:40;;;;;;;31.95;14.45;;;17.70;91.80;;;;;;5048209;28;20045;-82
2021/06/07 05:35:08;;;;;;;25.65;13.45;;;17.80;91.90;;;;;;5031471;28;20529;-82
2021/06/07 05:37:34;;;;;;;25.50;13.52;;;17.70;91.80;;;;;;5039706;28;20035;-80
2021/06/07 05:39:59;;;;;;;24.83;12.80;;;17.70;91.90;;;;;;5034248;28;20456;-81
2021/06/07 05:42:25;;;;;;;25.05;12.43;;;17.80;92.00;;;;;;5030954;28;20033;-82
2021/06/07 05:44:51;;;;;;;26.88;13.48;;;17.80;91.80;;;;;;5026974;28;20083;-82
2021/06/07 05:47:17;;;;;;;26.90;12.88;;;17.80;91.90;;;;;;5034920;28;20035;-81
2021/06/07 05:49:42;;;;;;;24.73;12.38;;;17.70;91.80;;;;;;5035027;28;20056;-82
2021/06/07 05:52:10;;;;;;;27.35;13.00;;;17.80;91.90;;;;;;5039000;28;20116;-81
2021/06/07 05:54:37;;;;;;;25.05;12.50;;;17.80;91.90;;;;;;5037794;28;20029;-80
2021/06/07 05:57:04;;;;;;;25.17;12.93;;;17.80;91.90;;;;;;5019271;28;20037;-82
2021/06/07 05:59:30;;;;;;;25.80;12.73;;;17.80;91.80;;;;;;5038053;28;20025;-78
2021/06/07 06:01:56;;;;;;;22.00;12.05;;;17.80;91.90;;;;;;5036728;28;20037;-81
2021/06/07 06:04:23;;;;;;;23.90;12.48;;;17.80;91.90;;;;;;5043749;28;20040;-82
2021/06/07 06:06:50;;;;;;;22.98;12.40;;;17.80;91.90;;;;;;5031775;28;20439;-88
2021/06/07 06:09:15;;;;;;;22.70;11.75;;;17.80;91.80;;;;;;5038641;28;20122;-81
2021/06/07 06:11:41;;;;;;;23.05;11.98;;;17.80;91.90;;;;;;5037766;28;20058;-82
2021/06/07 06:14:08;;;;;;;22.00;11.30;;;17.80;92.00;;;;;;5038148;28;20029;-83
2021/06/07 06:16:34;;;;;;;24.13;11.80;;;17.80;91.90;;;;;;5042671;28;20070;-83
2021/06/07 06:19:00;;;;;;;23.70;11.23;;;17.80;91.90;;;;;;5041860;28;20029;-83
2021/06/07 06:21:27;;;;;;;21.50;12.25;;;17.80;91.90;;;;;;5040851;28;20549;-85
2021/06/07 06:23:54;;;;;;;22.63;11.93;;;17.80;91.80;;;;;;5038440;28;20025;-85
2021/06/07 06:26:20;;;;;;;18.75;10.05;;;17.80;91.90;;;;;;5058347;28;20433;-82
2021/06/07 06:28:46;;;;;;;20.23;11.48;;;17.80;91.90;;;;;;5045321;28;20033;-86
2021/06/07 06:31:12;;;;;;;18.38;10.63;;;17.80;91.90;;;;;;5064937;28;20514;-85
2021/06/07 06:33:38;;;;;;;16.88;9.98;;;17.80;91.90;;;;;;5059694;28;20037;-83
2021/06/07 06:36:04;;;;;;;18.58;10.35;;;17.80;91.80;;;;;;5037848;28;20086;-80
2021/06/07 06:38:30;;;;;;;14.85;9.25;;;17.80;91.90;;;;;;5066108;28;20033;-79
2021/06/07 06:40:56;;;;;;;18.05;9.38;;;17.80;91.90;;;;;;5038168;28;20431;-79
2021/06/07 06:43:22;;;;;;;13.98;8.93;;;17.80;91.80;;;;;;5055652;28;20036;-81
2021/06/07 06:45:48;;;;;;;13.48;8.57;;;17.80;91.80;;;;;;5047718;28;20385;-86
2021/06/07 06:48:14;;;;;;;14.15;8.50;;;17.80;91.90;;;;;;5056112;28;20025;-86
2021/06/07 06:50:42;;;;;;;13.02;8.15;;;17.90;91.90;;;;;;5057229;28;20280;-86
2021/06/07 06:53:12;;;;;;;12.05;7.72;;;17.90;91.60;;;;;;5037777;28;20040;-86
2021/06/07 06:55:39;;;;;;;10.73;6.63;;;17.90;91.60;;;;;;5058107;28;20013;-84
2021/06/07 06:58:05;;;;;;;11.63;7.22;;;18.00;91.70;;;;;;5031839;28;20112;-84
2021/06/07 07:00:36;;;;;;;11.45;7.25;;;18.00;91.40;;;;;;5061364;28;20024;-80
2021/06/07 07:03:04;;;;;;;11.02;7.38;;;18.00;91.40;;;;;;5039295;28;20028;-81
2021/06/07 07:05:30;;;;;;;9.35;6.30;;;18.00;91.40;;;;;;5065145;28;20355;-81
2021/06/07 07:07:56;;;;;;;10.48;6.78;;;18.00;91.30;;;;;;5056739;28;20056;-80
2021/06/07 07:10:21;;;;;;;10.88;6.80;;;18.10;91.40;;;;;;5042306;28;20500;-81
2021/06/07 07:12:48;;;;;;;9.05;6.18;;;18.10;91.20;;;;;;5037272;28;20025;-81
2021/06/07 07:15:13;;;;;;;8.45;5.90;;;18.10;91.10;;;;;;5054832;28;20116;-80
2021/06/07 07:17:40;;;;;;;10.88;6.35;;;18.10;91.20;;;;;;5050785;28;20056;-84
2021/06/07 07:20:07;;;;;;;8.27;5.90;;;18.10;91.10;;;;;;5063103;28;20029;-83
2021/06/07 07:22:33;;;;;;;8.52;6.20;;;18.10;90.90;;;;;;5035488;28;20041;-82
2021/06/07 07:24:59;;;;;;;8.02;5.80;;;18.20;91.00;;;;;;5054987;28;20037;-82
2021/06/07 07:27:25;;;;;;;9.05;6.15;;;18.30;90.90;;;;;;5036617;28;20033;-82
2021/06/07 07:29:51;;;;;;;9.48;5.85;;;18.20;90.90;;;;;;5036397;28;20168;-79
2021/06/07 07:32:17;;;;;;;8.85;5.97;;;18.20;90.90;;;;;;5050620;28;20674;-81
2021/06/07 07:34:43;;;;;;;10.57;6.38;;;18.20;91.00;;;;;;5054173;28;20037;-81
2021/06/07 07:37:10;;;;;;;9.32;5.63;;;18.20;91.00;;;;;;5053390;28;20052;-81
2021/06/07 07:39:37;;;;;;;9.18;6.30;;;18.20;91.10;;;;;;5032865;28;20035;-81
2021/06/07 07:42:04;;;;;;;9.30;6.18;;;18.20;90.90;;;;;;5036981;28;20064;-82
2021/06/07 07:44:31;;;;;;;7.75;5.47;;;18.20;90.80;;;;;;5054348;28;20124;-83
2021/06/07 07:46:56;;;;;;;7.97;5.57;;;18.30;90.80;;;;;;5036853;28;20032;-85
2021/06/07 07:49:22;;;;;;;9.23;6.13;;;18.30;90.80;;;;;;5024756;28;20029;-83
2021/06/07 07:51:48;;;;;;;10.25;6.53;;;18.30;90.80;;;;;;5027313;28;20398;-81
2021/06/07 07:54:14;;;;;;;7.97;5.65;;;18.30;90.80;;;;;;5047888;28;20029;-83
2021/06/07 07:56:40;;;;;;;9.15;6.00;;;18.30;90.70;;;;;;5055966;28;20521;-84
2021/06/07 07:59:08;;;;;;;8.60;5.95;;;18.30;90.60;;;;;;5032535;28;20053;-83
2021/06/07 08:01:34;;;;;;;9.25;6.05;;;18.30;90.70;;;;;;5040073;28;20380;-83
2021/06/07 08:04:00;;;;;;;9.05;5.60;;;18.30;90.80;;;;;;5037106;28;20116;-88
2021/06/07 08:06:26;;;;;;;7.47;5.32;;;18.30;90.60;;;;;;5053836;28;20024;-84
2021/06/07 08:08:52;;;;;;;8.18;5.88;;;18.40;90.60;;;;;;5036767;28;20029;-83
2021/06/07 08:11:19;;;;;;;8.43;6.32;;;18.40;90.60;;;;;;5033015;28;20033;-82
2021/06/07 08:13:45;;;;;;;8.52;5.60;;;18.30;90.70;;;;;;5044948;28;20457;-83
2021/06/07 08:16:10;;;;;;;7.75;5.63;;;18.30;90.70;;;;;;5043342;28;20025;-84
2021/06/07 08:18:36;;;;;;;7.57;5.68;;;18.40;90.70;;;;;;5021929;28;20030;-83
2021/06/07 08:21:02;;;;;;;6.90;4.90;;;18.30;90.60;;;;;;5016769;28;20437;-84
2021/06/07 08:23:27;;;;;;;6.15;5.07;;;18.40;90.60;;;;;;5040540;28;20033;-83
2021/06/07 08:25:53;;;;;;;7.82;5.45;;;18.40;90.60;;;;;;5045228;28;20485;-80
2021/06/07 08:28:19;;;;;;;6.80;5.22;;;18.40;90.70;;;;;;5035086;28;20071;-84
2021/06/07 08:30:45;;;;;;;7.05;5.45;;;18.40;90.60;;;;;;5035060;28;20032;-83
2021/06/07 08:33:11;;;;;;;8.40;5.00;;;18.40;90.60;;;;;;5027067;28;20105;-83
2021/06/07 08:35:38;;;;;;;7.97;4.97;;;18.50;90.60;;;;;;5035241;28;20059;-84
2021/06/07 08:38:04;;;;;;;7.75;5.38;;;18.60;90.30;;;;;;5022159;28;20180;-83
2021/06/07 08:40:31;;;;;;;6.25;5.20;;;18.60;90.20;;;;;;5031448;28;20033;-82
2021/06/07 08:42:57;;;;;;;7.05;5.50;;;18.70;90.20;;;;;;5034161;28;20065;-82
2021/06/07 08:45:24;;;;;;;6.95;5.13;;;18.70;90.10;;;;;;5034936;28;20047;-82
2021/06/07 08:47:52;;;;;;;6.70;5.10;;;18.70;90.10;;;;;;5053036;28;20021;-82
2021/06/07 08:50:22;;;;;;;8.98;5.65;;;18.70;90.10;;;;;;5033081;28;20021;-82
2021/06/07 08:52:48;;;;;;;7.25;5.20;;;18.70;90.10;;;;;;5034588;28;20025;-83
2021/06/07 08:55:19;;;;;;;7.68;5.18;;;18.70;90.00;;;;;;5052746;28;20113;-81
2021/06/07 08:57:48;;;;;;;5.10;4.50;;;18.70;90.10;;;;;;5033841;28;20504;-81
2021/06/07 09:00:18;;;;;;;6.03;4.78;;;18.60;90.20;;;;;;5045458;28;20140;-82
2021/06/07 09:02:45;;;;;;;6.53;4.72;;;18.60;90.20;;;;;;5029695;28;20029;-83
2021/06/07 09:05:11;;;;;;;6.03;4.95;;;18.70;90.30;;;;;;5034694;28;20057;-83
2021/06/07 09:07:54;;;;;;;5.10;4.22;;;18.60;90.20;;;;;;5034361;28;20453;-84
2021/06/07 09:10:20;;;;;;;5.68;4.70;;;18.60;90.20;;;;;;5034695;28;20033;-79
2021/06/07 09:12:50;;;;;;;5.68;4.72;;;18.60;90.30;;;;;;5051450;28;20029;-78
2021/06/07 09:15:35;;;;;;;5.82;4.65;;;18.70;90.10;;;;;;5034765;28;20025;-79
2021/06/07 09:18:03;;;;;;;7.93;5.47;;;18.60;90.20;;;;;;5032260;28;20477;-81
2021/06/07 09:20:30;;;;;;;6.93;5.43;;;18.70;90.20;;;;;;5033540;28;20492;-80
2021/06/07 09:22:58;;;;;;;6.28;4.93;;;18.70;90.20;;;;;;5052194;28;20032;-82
2021/06/07 09:25:29;;;;;;;5.15;4.63;;;18.80;90.10;;;;;;5034510;28;20412;-81
2021/06/07 09:28:27;;;;;;;6.22;5.20;;;18.90;90.00;;;;;;5035113;28;20035;-83
2021/06/07 09:30:58;;;;;;;6.70;4.90;;;18.90;89.90;;;;;;5031675;28;20033;-81
2021/06/07 09:33:36;;;;;;;4.90;4.17;;;19.00;89.40;;;;;;5050985;28;20057;-82
2021/06/07 09:36:07;;;;;;;5.25;4.30;;;19.00;89.30;;;;;;5024958;28;20357;-82
2021/06/07 09:38:34;;;;;;;8.98;5.68;;;19.00;89.30;;;;;;5034745;28;20021;-82
2021/06/07 09:41:03;;;;;;;4.80;4.30;;;19.00;89.40;;;;;;5036007;28;20029;-83
2021/06/07 09:43:49;;;;;;;8.27;6.05;;;19.00;89.80;;;;;;5041052;28;20453;-81
2021/06/07 09:46:16;;;;;;;6.00;4.28;;;19.00;90.00;;;;;;5059222;28;20099;-80
2021/06/07 09:48:41;;;;;;;8.73;5.05;;;19.10;90.00;;;;;;5052140;28;20029;-82
2021/06/07 09:51:08;;;;;;;6.45;4.63;;;19.00;89.70;;;;;;5035225;28;20354;-83
2021/06/07 09:53:48;;;;;;;6.60;5.13;;;19.10;89.80;;;;;;5034359;28;20028;-82
2021/06/07 09:56:15;;;;;;;11.38;5.30;;;19.00;89.80;;;;;;5034901;28;20115;-82
2021/06/07 09:58:41;;;;;;;6.05;5.22;;;19.00;90.00;;;;;;5052160;28;20025;-83
2021/06/07 10:01:15;;;;;;;6.07;4.75;;;19.00;90.00;;;;;;5034855;28;20426;-83
2021/06/07 10:03:43;;;;;;;5.60;4.38;;;19.00;90.10;;;;;;5034818;28;20029;-85
2021/06/07 10:06:22;;;;;;;7.05;4.85;;;19.00;90.10;;;;;;5034862;28;20040;-83
2021/06/07 10:08:57;;;;;;;6.45;4.47;;;19.00;90.00;;;;;;5026282;28;20018;-83
2021/06/07 10:11:23;;;;;;;8.15;5.03;;;19.00;89.80;;;;;;5034190;28;20040;-83
2021/06/07 10:14:10;;;;;;;5.85;5.03;;;19.00;89.90;;;;;;5033866;28;20373;-82
2021/06/07 10:16:37;;;;;;;6.22;5.10;;;19.00;90.00;;;;;;5038568;28;20042;-80
2021/06/07 10:19:15;;;;;;;7.22;4.97;;;18.90;90.10;;;;;;5035935;28;20021;-84
2021/06/07 10:21:41;;;;;;;6.53;4.88;;;18.90;90.20;;;;;;5041140;28;20029;-80
2021/06/07 10:24:07;;;;;;;6.15;4.72;;;19.00;90.30;;;;;;5027826;28;20036;-81
2021/06/07 10:26:33;;;;;;;9.73;5.30;;;19.00;90.20;;;;;;5049576;28;20083;-83
2021/06/07 10:28:59;;;;;;;7.70;5.13;;;19.00;90.30;;;;;;5034553;28;20025;-84
2021/06/07 10:31:25;;;;;;;15.32;9.60;;;18.90;90.40;;;;;;5034203;28;20052;-81
2021/06/07 10:34:02;;;;;;;7.93;6.10;;;18.90;90.70;;;;;;5050657;28;20041;-83
2021/06/07 10:36:32;;;;;;;20.05;12.55;;;18.90;90.60;;;;;;5034542;28;20056;-78
2021/06/07 10:39:16;;;;;;;8.57;6.45;;;18.90;90.60;;;;;;5054644;28;20100;-77
2021/06/07 10:41:44;;;;;;;7.75;5.78;;;18.90;90.70;;;;;;5036664;28;20036;-80
2021/06/07 10:44:10;;;;;;;8.57;6.22;;;19.00;90.60;;;;;;5037750;28;20531;-82
2021/06/07 10:46:40;;;;;;;7.75;5.60;;;19.00;90.50;;;;;;5037709;28;20029;-81
2021/06/07 10:49:45;;;;;;;12.25;6.68;;;18.90;90.40;;;;;;5022505;28;20083;-82
2021/06/07 10:52:22;;;;;;;9.63;5.65;;;18.90;90.40;;;;;;5046718;28;20033;-82
2021/06/07 10:55:06;;;;;;;8.90;5.20;;;19.00;90.40;;;;;;5055216;28;20021;-81
2021/06/07 10:57:41;;;;;;;7.13;5.40;;;19.00;90.10;;;;;;5010362;28;20025;-81
2021/06/07 11:00:21;;;;;;;7.70;5.65;;;19.00;90.10;;;;;;5020542;28;20044;-81
2021/06/07 11:02:47;;;;;;;8.50;5.97;;;19.10;90.10;;;;;;5019046;28;20033;-81
2021/06/07 11:05:20;;;;;;;7.03;5.60;;;19.10;90.30;;;;;;5034091;28;20029;-79
2021/06/07 11:08:06;;;;;;;8.35;5.43;;;19.00;90.00;;;;;;5037040;28;20079;-85
2021/06/07 11:10:42;;;;;;;8.77;5.32;;;19.00;90.00;;;;;;5052952;28;20045;-77
2021/06/07 11:13:12;;;;;;;8.82;5.97;;;19.00;90.10;;;;;;5049070;28;20025;-77
2021/06/07 11:15:56;;;;;;;9.50;5.80;;;19.00;90.10;;;;;;5030869;28;20069;-77
2021/06/07 11:18:37;;;;;;;11.05;5.63;;;19.10;90.10;;;;;;5064826;28;20481;-77
2021/06/07 11:21:46;;;;;;;11.30;7.13;;;19.10;90.10;;;;;;5012213;28;20071;-78
2021/06/07 11:24:27;;;;;;;11.25;7.28;;;19.20;90.00;;;;;;5028317;28;20029;-78
2021/06/07 11:26:54;;;;;;;10.87;7.53;;;19.20;90.00;;;;;;5038208;28;20017;-77
2021/06/07 11:29:20;;;;;;;14.85;7.80;;;19.20;89.70;;;;;;5024667;28;20037;-79
2021/06/07 11:32:08;;;;;;;14.10;7.80;;;19.20;89.90;;;;;;5036182;28;20381;-80
2021/06/07 11:34:47;;;;;;;15.60;8.70;;;19.10;90.00;;;;;;5056645;28;20047;-79
2021/06/07 11:37:16;;;;;;;13.68;9.32;;;19.10;90.00;;;;;;5054857;28;20061;-80
2021/06/07 11:39:42;;;;;;;17.20;9.48;;;19.10;90.10;;;;;;5029737;28;20037;-82
2021/06/07 11:42:08;;;;;;;16.67;10.15;;;19.10;90.00;;;;;;5027713;28;20363;-81
2021/06/07 11:44:46;;;;;;;18.08;9.60;;;19.00;90.10;;;;;;5037053;28;20029;-82
2021/06/07 11:47:15;;;;;;;16.00;10.02;;;19.00;90.40;;;;;;5051167;28;20035;-82
2021/06/07 11:49:56;;;;;;;20.90;8.85;;;19.00;90.40;;;;;;5033005;28;20029;-82
2021/06/07 11:52:47;;;;;;;18.15;9.27;;;19.00;90.30;;;;;;5034647;28;20021;-81
2021/06/07 11:55:28;;;;;;;20.70;9.70;;;19.00;90.30;;;;;;5037749;28;20029;-80
2021/06/07 11:58:06;;;;;;;17.87;9.37;;;19.00;90.30;;;;;;5054552;28;20031;-82
2021/06/07 12:00:43;;;;;;;16.48;9.25;;;19.00;90.30;;;;;;5027329;28;20104;-79
2021/06/07 12:03:16;;;;;;;17.10;9.15;;;19.00;90.20;;;;;;5041781;28;20037;-81
2021/06/07 12:05:42;;;;;;;16.13;9.10;;;19.00;90.30;;;;;;5023572;28;20049;-79
2021/06/07 12:08:10;;;;;;;16.10;8.82;;;18.90;90.50;;;;;;5053866;28;20109;-79
2021/06/07 12:10:39;;;;;;;18.00;8.43;;;18.90;90.70;;;;;;5035949;28;20036;-83
2021/06/07 12:13:21;;;;;;;19.85;9.55;;;18.90;90.50;;;;;;5035337;28;20029;-83
2021/06/07 12:15:56;;;;;;;21.20;10.70;;;19.00;90.30;;;;;;5053739;28;20067;-81
2021/06/07 12:18:40;;;;;;;22.60;10.82;;;18.90;90.30;;;;;;5048886;28;20028;-81
2021/06/07 12:21:15;;;;;;;23.98;11.70;;;18.90;90.30;;;;;;5032337;28;20116;-82
2021/06/07 12:24:07;;;;;;;20.08;10.95;;;19.00;90.30;;;;;;5038686;28;20040;-84
2021/06/07 12:29:31;;;;;;;20.83;11.07;;;19.00;90.10;;;;;;5054616;28;20035;-79
2021/06/07 12:32:18;;;;;;;21.08;10.63;;;19.00;90.20;;;;;;5052930;28;20048;-79
2021/06/07 12:35:10;;;;;;;24.75;12.18;;;19.10;90.20;;;;;;5055226;28;20046;-82
2021/06/07 12:37:43;;;;;;;23.73;11.55;;;19.10;90.00;;;;;;5036203;28;20026;-82
2021/06/07 12:40:17;;;;;;;24.17;11.98;;;19.10;90.00;;;;;;5036183;28;20102;-83
2021/06/07 12:42:46;;;;;;;25.90;12.18;;;19.10;90.00;;;;;;5035848;28;20029;-87
2021/06/07 12:45:14;;;;;;;21.05;11.80;;;19.10;90.00;;;;;;5030498;28;20108;-83